Time;durP1;ratioP1;P1;durP2;ratioP2;P2;SDS_P1;SDS_P2;PMS_P1;PMS_P2;Temp;Humidity;BMP_temperature;BMP_pressure;BME280_temperature;BME280_humidity;BME280_pressure;Samples;Min_cycle;Max_cycle;Signal;HPM_P1;HPM_P2
2022/09/17 00:00:10;;;;;;;0.50;0.50;;;11.20;99.90;;;;;;4889597;28;20053;-85
2022/09/17 00:02:37;;;;;;;0.50;0.50;;;11.20;99.90;;;;;;4911874;28;20056;-85
2022/09/17 00:05:05;;;;;;;0.50;0.50;;;11.10;99.90;;;;;;4931869;28;20218;-85
2022/09/17 00:07:31;;;;;;;0.50;0.50;;;11.10;99.90;;;;;;4938531;28;20053;-85
2022/09/17 00:09:57;;;;;;;0.50;0.50;;;11.10;99.90;;;;;;4905415;28;20689;-83
2022/09/17 00:12:23;;;;;;;0.50;0.50;;;11.00;99.90;;;;;;4910397;28;20046;-85
2022/09/17 00:14:49;;;;;;;0.50;0.50;;;11.00;99.90;;;;;;4932602;28;20958;-88
2022/09/17 00:17:15;;;;;;;0.45;0.45;;;10.90;99.90;;;;;;4895401;28;20057;-84
2022/09/17 00:19:41;;;;;;;0.50;0.50;;;11.00;99.90;;;;;;4904872;28;20038;-85
2022/09/17 00:22:06;;;;;;;0.50;0.50;;;10.90;99.90;;;;;;4901808;28;20041;-85
2022/09/17 00:24:32;;;;;;;0.50;0.50;;;10.80;99.90;;;;;;4901423;28;20391;-84
2022/09/17 00:26:58;;;;;;;0.40;0.40;;;10.80;99.90;;;;;;4888410;28;20065;-87
2022/09/17 00:29:24;;;;;;;0.50;0.50;;;10.70;99.90;;;;;;4888379;28;20072;-83
2022/09/17 00:31:50;;;;;;;0.50;0.50;;;10.70;99.90;;;;;;4923738;28;20080;-84
2022/09/17 00:34:16;;;;;;;0.40;0.40;;;10.60;99.90;;;;;;4907710;28;20038;-84
2022/09/17 00:36:41;;;;;;;0.50;0.50;;;10.60;99.90;;;;;;4886820;28;20041;-82
2022/09/17 00:39:10;;;;;;;0.50;0.50;;;10.60;99.90;;;;;;4879995;28;20046;-85
2022/09/17 00:41:36;;;;;;;0.50;0.50;;;10.60;99.90;;;;;;4913904;28;20045;-84
2022/09/17 00:44:40;;;;;;;0.50;0.50;;;10.50;99.90;;;;;;4900647;28;20515;-84
2022/09/17 00:47:17;;;;;;;0.50;0.50;;;10.50;99.90;;;;;;4916035;28;20439;-83
2022/09/17 00:49:44;;;;;;;0.50;0.50;;;10.50;99.90;;;;;;4939452;28;20390;-85
2022/09/17 00:52:22;;;;;;;0.50;0.50;;;10.50;99.90;;;;;;4878331;28;20049;-83
2022/09/17 00:54:55;;;;;;;0.50;0.50;;;10.40;99.90;;;;;;4912167;28;20057;-82
2022/09/17 00:57:21;;;;;;;0.50;0.50;;;10.50;99.90;;;;;;4939592;28;20445;-82
2022/09/17 00:59:48;;;;;;;0.50;0.50;;;10.40;99.90;;;;;;4908487;28;20073;-83
2022/09/17 01:02:14;;;;;;;0.50;0.50;;;10.40;99.90;;;;;;4903834;28;20091;-81
2022/09/17 01:04:41;;;;;;;0.50;0.50;;;10.40;99.90;;;;;;4919962;28;20053;-83
2022/09/17 01:07:10;;;;;;;0.50;0.50;;;10.40;99.90;;;;;;4898005;28;20818;-81
2022/09/17 01:10:13;;;;;;;0.50;0.50;;;10.40;99.90;;;;;;4919684;28;20046;-80
2022/09/17 01:12:58;;;;;;;0.50;0.50;;;10.50;99.90;;;;;;4929551;28;20510;-82
2022/09/17 01:15:43;;;;;;;0.50;0.50;;;10.50;99.90;;;;;;4943342;28;20897;-83
2022/09/17 01:18:35;;;;;;;0.40;0.40;;;10.50;99.90;;;;;;4912953;28;20364;-82
2022/09/17 01:21:19;;;;;;;0.50;0.50;;;10.50;99.90;;;;;;4931261;28;20068;-81
2022/09/17 01:23:57;;;;;;;0.50;0.50;;;10.50;99.90;;;;;;4938038;28;20269;-82
2022/09/17 01:26:38;;;;;;;0.50;0.50;;;10.50;99.90;;;;;;4906123;28;20054;-82
2022/09/17 01:29:59;;;;;;;0.50;0.50;;;10.40;99.90;;;;;;4923194;28;20092;-81
2022/09/17 01:32:59;;;;;;;0.50;0.50;;;10.40;99.90;;;;;;4866101;28;20381;-82
2022/09/17 01:35:25;;;;;;;0.50;0.50;;;10.40;99.90;;;;;;4919787;28;20095;-84
2022/09/17 01:38:03;;;;;;;0.50;0.50;;;10.40;99.90;;;;;;4913533;28;20160;-82
2022/09/17 01:40:38;;;;;;;0.50;0.50;;;10.30;99.90;;;;;;4909532;28;20536;-83
2022/09/17 01:43:12;;;;;;;0.50;0.50;;;10.40;99.90;;;;;;4943926;28;20279;-84
2022/09/17 01:45:37;;;;;;;;;;;10.40;99.90;;;;;;4911520;28;20858;-83
2022/09/17 01:48:19;;;;;;;0.50;0.50;;;10.30;99.90;;;;;;4908953;28;19979;-82
2022/09/17 01:51:10;;;;;;;0.50;0.50;;;10.30;99.90;;;;;;4944097;28;20096;-82
2022/09/17 01:53:47;;;;;;;0.50;0.50;;;10.20;99.90;;;;;;4912445;28;20888;-84
2022/09/17 01:56:17;;;;;;;0.50;0.50;;;10.20;99.90;;;;;;4923612;28;20653;-83
2022/09/17 01:58:50;;;;;;;0.50;0.50;;;10.20;99.90;;;;;;4910622;28;20057;-83
2022/09/17 02:01:21;;;;;;;0.50;0.50;;;10.10;99.90;;;;;;4944665;28;20061;-85
2022/09/17 02:04:02;;;;;;;0.50;0.50;;;10.10;99.90;;;;;;4905553;28;20078;-84
2022/09/17 02:06:37;;;;;;;0.50;0.50;;;10.20;99.90;;;;;;4891999;28;20053;-85
2022/09/17 02:09:27;;;;;;;0.50;0.50;;;10.20;99.90;;;;;;4914082;28;20126;-84
2022/09/17 02:11:57;;;;;;;0.50;0.50;;;10.20;99.90;;;;;;4911310;28;20431;-84
2022/09/17 02:14:33;;;;;;;0.50;0.50;;;10.20;99.90;;;;;;4907794;28;20459;-84
2022/09/17 02:17:13;;;;;;;0.50;0.50;;;10.20;99.90;;;;;;4905591;28;20048;-83
2022/09/17 02:19:40;;;;;;;0.50;0.50;;;10.20;99.90;;;;;;4941320;28;20632;-84
2022/09/17 02:22:14;;;;;;;0.50;0.50;;;10.20;99.90;;;;;;4880716;28;20506;-83
2022/09/17 02:24:51;;;;;;;0.50;0.50;;;10.30;99.90;;;;;;4902588;28;20050;-83
2022/09/17 02:27:37;;;;;;;0.50;0.50;;;10.20;99.90;;;;;;4909806;28;20404;-84
2022/09/17 02:30:04;;;;;;;0.50;0.50;;;10.20;99.90;;;;;;4910635;28;20045;-83
2022/09/17 02:32:30;;;;;;;0.50;0.50;;;10.20;99.90;;;;;;4921823;28;20050;-83
2022/09/17 02:34:56;;;;;;;0.50;0.50;;;10.20;99.90;;;;;;4909024;28;20113;-84
2022/09/17 02:37:22;;;;;;;0.50;0.50;;;10.20;99.90;;;;;;4905157;28;20076;-84
2022/09/17 02:39:48;;;;;;;0.50;0.50;;;10.20;99.90;;;;;;4947797;28;20449;-84
2022/09/17 02:42:55;;;;;;;0.50;0.50;;;10.20;99.90;;;;;;4948898;28;20378;-83
2022/09/17 02:45:45;;;;;;;0.57;0.57;;;10.20;99.90;;;;;;4877369;28;20140;-85
2022/09/17 02:48:38;;;;;;;0.50;0.50;;;10.20;99.90;;;;;;4936797;28;20047;-85
2022/09/17 02:51:35;;;;;;;0.50;0.50;;;10.20;99.90;;;;;;4915291;28;20042;-86
2022/09/17 02:54:29;;;;;;;0.50;0.50;;;10.20;99.90;;;;;;4901900;28;20995;-84
2022/09/17 02:57:30;;;;;;;0.55;0.55;;;10.10;99.90;;;;;;4926212;28;20110;-81
2022/09/17 03:00:04;;;;;;;0.50;0.50;;;10.10;99.90;;;;;;4832391;28;20051;-85
2022/09/17 03:02:56;;;;;;;0.50;0.50;;;10.20;99.90;;;;;;4908014;28;20432;-84
2022/09/17 03:05:24;;;;;;;0.50;0.50;;;10.20;99.90;;;;;;4895908;28;20096;-82
2022/09/17 03:07:50;;;;;;;0.50;0.50;;;10.20;99.90;;;;;;4913831;28;20069;-83
2022/09/17 03:10:18;;;;;;;0.50;0.50;;;10.30;99.90;;;;;;4939735;28;20046;-82
2022/09/17 03:12:44;;;;;;;0.50;0.50;;;10.30;99.90;;;;;;4896983;28;20566;-83
2022/09/17 03:15:10;;;;;;;0.50;0.50;;;10.30;99.90;;;;;;4909201;28;20053;-82
2022/09/17 03:17:36;;;;;;;0.50;0.50;;;10.30;99.90;;;;;;4945152;28;20062;-83
2022/09/17 03:20:02;;;;;;;0.40;0.40;;;10.30;99.90;;;;;;4922091;28;20273;-85
2022/09/17 03:22:28;;;;;;;0.50;0.50;;;10.30;99.90;;;;;;4907462;28;20046;-84
2022/09/17 03:24:53;;;;;;;0.40;0.40;;;10.30;99.90;;;;;;4942155;28;20586;-82
2022/09/17 03:27:19;;;;;;;0.50;0.50;;;10.40;99.90;;;;;;4938729;28;20677;-83
2022/09/17 03:29:45;;;;;;;0.55;0.55;;;10.40;99.90;;;;;;4903996;28;20475;-84
2022/09/17 03:32:11;;;;;;;0.50;0.50;;;10.40;99.90;;;;;;4912821;28;21071;-84
2022/09/17 03:34:36;;;;;;;0.50;0.50;;;10.40;99.90;;;;;;4924837;28;20540;-82
2022/09/17 03:37:02;;;;;;;0.50;0.50;;;10.40;99.90;;;;;;4898361;28;20114;-83
2022/09/17 03:39:29;;;;;;;0.50;0.50;;;10.40;99.90;;;;;;4945460;28;20050;-82
2022/09/17 03:41:54;;;;;;;0.50;0.50;;;10.40;99.90;;;;;;4909967;28;20111;-82
2022/09/17 03:44:22;;;;;;;0.50;0.50;;;10.30;99.90;;;;;;4890339;28;20050;-83
2022/09/17 03:46:48;;;;;;;0.45;0.45;;;10.30;99.90;;;;;;4906669;28;20057;-82
2022/09/17 03:49:14;;;;;;;0.50;0.50;;;10.30;99.90;;;;;;4927620;28;21029;-82
2022/09/17 03:51:40;;;;;;;0.50;0.50;;;10.20;99.90;;;;;;4904474;28;20045;-82
2022/09/17 03:54:06;;;;;;;0.50;0.50;;;10.20;99.90;;;;;;4925636;28;20073;-83
2022/09/17 03:56:32;;;;;;;0.50;0.50;;;10.20;99.90;;;;;;4944991;28;20767;-82
2022/09/17 03:58:59;;;;;;;0.50;0.50;;;10.20;99.90;;;;;;4922655;28;20053;-82
2022/09/17 04:01:26;;;;;;;0.50;0.50;;;10.10;99.90;;;;;;4925385;28;20046;-81
2022/09/17 04:03:52;;;;;;;0.50;0.50;;;10.20;99.90;;;;;;4909171;28;20064;-81
2022/09/17 04:06:17;;;;;;;0.50;0.50;;;10.20;99.90;;;;;;4934107;28;20049;-81
2022/09/17 04:08:43;;;;;;;0.50;0.50;;;10.10;99.90;;;;;;4948434;28;20513;-82
2022/09/17 04:11:09;;;;;;;0.50;0.50;;;10.20;99.90;;;;;;4907035;28;20514;-82
2022/09/17 04:13:35;;;;;;;0.50;0.50;;;10.10;99.90;;;;;;4942521;28;20578;-82
2022/09/17 04:16:02;;;;;;;0.50;0.50;;;10.10;99.90;;;;;;4941713;28;20453;-81
2022/09/17 04:18:27;;;;;;;0.50;0.50;;;10.10;99.90;;;;;;4909362;28;20054;-82
2022/09/17 04:20:53;;;;;;;0.50;0.50;;;10.00;99.90;;;;;;4904351;28;20066;-83
2022/09/17 04:23:19;;;;;;;0.50;0.50;;;10.10;99.90;;;;;;4893898;28;21730;-82
2022/09/17 04:25:45;;;;;;;0.50;0.50;;;10.00;99.90;;;;;;4936813;28;20952;-83
2022/09/17 04:28:11;;;;;;;0.50;0.50;;;10.10;99.90;;;;;;4910773;28;20045;-82
2022/09/17 04:30:37;;;;;;;0.50;0.50;;;10.10;99.90;;;;;;4937107;28;20048;-82
2022/09/17 04:33:03;;;;;;;0.50;0.50;;;10.10;99.90;;;;;;4910735;28;20053;-82
2022/09/17 04:35:29;;;;;;;0.50;0.50;;;10.10;99.90;;;;;;4885099;28;20141;-81
2022/09/17 04:37:57;;;;;;;0.50;0.50;;;10.10;99.90;;;;;;4928454;28;20452;-83
2022/09/17 04:40:24;;;;;;;0.50;0.50;;;10.10;99.90;;;;;;4904722;28;20042;-83
2022/09/17 04:42:54;;;;;;;0.50;0.50;;;10.20;99.90;;;;;;4892735;28;20065;-81
2022/09/17 04:45:21;;;;;;;0.50;0.50;;;10.20;99.90;;;;;;4945474;28;20219;-82
2022/09/17 04:47:49;;;;;;;0.50;0.50;;;10.20;99.90;;;;;;4908404;28;20581;-82
2022/09/17 04:50:17;;;;;;;0.50;0.50;;;10.20;99.90;;;;;;4899810;28;20038;-82
2022/09/17 04:52:44;;;;;;;0.50;0.50;;;10.20;99.90;;;;;;4902962;28;20502;-80
2022/09/17 04:55:10;;;;;;;0.50;0.50;;;10.20;99.90;;;;;;4918582;28;20182;-82
2022/09/17 04:57:36;;;;;;;0.50;0.50;;;10.20;99.90;;;;;;4925832;28;20046;-82
2022/09/17 05:00:05;;;;;;;0.50;0.50;;;10.10;99.90;;;;;;4925406;28;20442;-82
2022/09/17 05:02:31;;;;;;;0.50;0.50;;;10.20;99.90;;;;;;4952461;28;20561;-82
2022/09/17 05:04:57;;;;;;;0.50;0.50;;;10.20;99.90;;;;;;4929661;28;20049;-82
2022/09/17 05:07:22;;;;;;;0.60;0.60;;;10.20;99.90;;;;;;4917435;28;20828;-82
2022/09/17 05:09:48;;;;;;;0.50;0.50;;;10.20;99.90;;;;;;4941789;28;20478;-82
2022/09/17 05:12:14;;;;;;;0.50;0.50;;;10.20;99.90;;;;;;4905194;28;20495;-83
2022/09/17 05:14:40;;;;;;;0.50;0.50;;;10.30;99.90;;;;;;4942653;28;20425;-86
2022/09/17 05:17:06;;;;;;;0.60;0.60;;;10.30;99.90;;;;;;4901712;28;20052;-83
2022/09/17 05:19:32;;;;;;;0.50;0.50;;;10.30;99.90;;;;;;4894296;28;20277;-82
2022/09/17 05:21:58;;;;;;;0.50;0.50;;;10.40;99.90;;;;;;4938971;28;20419;-84
2022/09/17 05:24:24;;;;;;;0.50;0.50;;;10.40;99.90;;;;;;4909098;28;20069;-83
2022/09/17 05:26:49;;;;;;;0.50;0.50;;;10.50;99.90;;;;;;4907773;28;20066;-82
2022/09/17 05:29:15;;;;;;;0.50;0.50;;;10.50;99.90;;;;;;4904756;28;20045;-83
2022/09/17 05:31:41;;;;;;;0.50;0.50;;;10.60;99.90;;;;;;4912852;28;20049;-84
2022/09/17 05:34:07;;;;;;;0.50;0.50;;;10.60;99.90;;;;;;4925736;28;20049;-85
2022/09/17 05:36:33;;;;;;;0.50;0.50;;;10.70;99.90;;;;;;4905331;28;20417;-83
2022/09/17 05:38:59;;;;;;;0.50;0.50;;;10.70;99.90;;;;;;4914288;28;20046;-84
2022/09/17 05:41:25;;;;;;;0.50;0.50;;;10.70;99.90;;;;;;4907234;28;20824;-82
2022/09/17 05:43:50;;;;;;;0.50;0.50;;;10.80;99.90;;;;;;4894884;28;20450;-82
2022/09/17 05:46:16;;;;;;;0.50;0.50;;;10.90;99.90;;;;;;4944144;28;20122;-83
2022/09/17 05:48:42;;;;;;;0.50;0.50;;;10.90;99.90;;;;;;4909058;28;20052;-81
2022/09/17 05:51:08;;;;;;;0.50;0.50;;;11.00;99.90;;;;;;4937609;28;20042;-81
2022/09/17 05:53:34;;;;;;;0.50;0.50;;;10.90;99.90;;;;;;4937378;28;20069;-82
2022/09/17 05:56:00;;;;;;;0.50;0.50;;;10.90;99.90;;;;;;4934542;28;20061;-81
2022/09/17 05:58:26;;;;;;;0.50;0.50;;;10.90;99.90;;;;;;4906202;28;20823;-82
2022/09/17 06:00:52;;;;;;;0.50;0.50;;;11.00;99.90;;;;;;4907361;28;20596;-82
2022/09/17 06:03:21;;;;;;;0.50;0.50;;;11.10;99.90;;;;;;4930431;28;20068;-81
2022/09/17 06:05:55;;;;;;;0.50;0.50;;;11.10;99.90;;;;;;4922804;28;20068;-80
2022/09/17 06:08:21;;;;;;;0.60;0.60;;;11.20;99.90;;;;;;4915522;28;20212;-81
2022/09/17 06:10:47;;;;;;;0.50;0.50;;;11.30;99.90;;;;;;4928445;28;20456;-80
2022/09/17 06:13:14;;;;;;;0.50;0.50;;;11.30;99.90;;;;;;4915513;28;20521;-80
2022/09/17 06:15:40;;;;;;;0.50;0.50;;;11.50;99.90;;;;;;4862834;28;20214;-80
2022/09/17 06:18:05;;;;;;;0.50;0.50;;;11.60;99.90;;;;;;4905604;28;20058;-79
2022/09/17 06:20:31;;;;;;;0.50;0.50;;;11.60;99.90;;;;;;4909942;28;20410;-79
2022/09/17 06:22:58;;;;;;;0.55;0.55;;;11.70;99.90;;;;;;4889862;28;20798;-81
2022/09/17 06:25:25;;;;;;;0.50;0.50;;;11.70;99.90;;;;;;4930309;28;20042;-85
2022/09/17 06:27:51;;;;;;;0.50;0.50;;;11.70;99.90;;;;;;4919551;28;20061;-81
2022/09/17 06:30:17;;;;;;;0.50;0.50;;;11.80;99.90;;;;;;4929018;28;20080;-81
2022/09/17 06:32:43;;;;;;;0.50;0.50;;;11.90;99.90;;;;;;4944649;28;20049;-81
2022/09/17 06:35:09;;;;;;;0.50;0.50;;;12.00;99.90;;;;;;4905947;28;20153;-80
2022/09/17 06:37:39;;;;;;;0.50;0.50;;;12.10;99.90;;;;;;4925885;28;20116;-79
2022/09/17 06:40:05;;;;;;;0.50;0.50;;;12.00;99.90;;;;;;4915709;28;20454;-79
2022/09/17 06:42:31;;;;;;;0.50;0.50;;;11.70;99.90;;;;;;4911980;28;20621;-79
2022/09/17 06:44:57;;;;;;;0.50;0.50;;;11.60;99.90;;;;;;4907623;28;20854;-80
2022/09/17 06:47:26;;;;;;;0.50;0.50;;;11.40;99.90;;;;;;4949047;28;20604;-79
2022/09/17 06:49:53;;;;;;;0.50;0.50;;;11.30;99.90;;;;;;4908147;28;20045;-81
2022/09/17 06:52:19;;;;;;;0.50;0.50;;;11.30;99.90;;;;;;4928998;28;20482;-80
2022/09/17 06:54:45;;;;;;;0.60;0.60;;;11.30;99.90;;;;;;4933636;28;20049;-81
2022/09/17 06:57:10;;;;;;;0.50;0.50;;;11.60;99.90;;;;;;4909741;28;20100;-81
2022/09/17 06:59:36;;;;;;;0.50;0.50;;;11.90;99.90;;;;;;4916625;28;20054;-81
2022/09/17 07:02:02;;;;;;;0.50;0.50;;;12.10;99.90;;;;;;4915402;28;20041;-81
2022/09/17 07:04:28;;;;;;;0.50;0.50;;;12.20;99.90;;;;;;4931035;28;20440;-81
2022/09/17 07:06:53;;;;;;;0.50;0.50;;;12.40;99.90;;;;;;4937165;28;20143;-79
2022/09/17 07:09:22;;;;;;;0.50;0.50;;;12.70;99.90;;;;;;4909602;28;20042;-78
2022/09/17 07:11:48;;;;;;;0.50;0.50;;;12.90;99.90;;;;;;4910582;28;20049;-81
2022/09/17 07:14:14;;;;;;;0.50;0.50;;;12.70;99.90;;;;;;4907215;28;20486;-80
2022/09/17 07:16:39;;;;;;;0.50;0.50;;;12.40;99.90;;;;;;4910870;28;20058;-80
2022/09/17 07:19:05;;;;;;;0.50;0.50;;;12.30;99.90;;;;;;4907069;28;20723;-79
2022/09/17 07:21:31;;;;;;;0.50;0.50;;;12.10;99.90;;;;;;4919660;28;20452;-79
2022/09/17 07:23:58;;;;;;;0.50;0.50;;;12.00;99.90;;;;;;4908481;28;20060;-78
2022/09/17 07:26:24;;;;;;;0.47;0.47;;;11.90;99.90;;;;;;4937811;28;20057;-78
2022/09/17 07:28:49;;;;;;;0.50;0.50;;;12.00;99.90;;;;;;4906896;28;20077;-80
2022/09/17 07:31:15;;;;;;;0.50;0.50;;;12.30;99.90;;;;;;4941786;28;20156;-78
2022/09/17 07:33:41;;;;;;;0.50;0.50;;;12.70;99.90;;;;;;4915799;28;20549;-80
2022/09/17 07:36:10;;;;;;;0.50;0.50;;;12.90;99.90;;;;;;4892777;28;20321;-80
2022/09/17 07:38:37;;;;;;;0.50;0.50;;;13.20;99.90;;;;;;4930535;28;20144;-79
2022/09/17 07:41:12;;;;;;;0.50;0.50;;;13.50;99.90;;;;;;4943352;28;20062;-82
2022/09/17 07:43:38;;;;;;;0.50;0.50;;;13.60;99.90;;;;;;4924214;28;20682;-80
2022/09/17 07:46:06;;;;;;;0.40;0.40;;;13.70;99.90;;;;;;4938406;28;20041;-80
2022/09/17 07:48:33;;;;;;;0.40;0.40;;;13.70;99.90;;;;;;4943002;28;20060;-80
2022/09/17 07:50:59;;;;;;;0.47;0.47;;;13.80;99.90;;;;;;4928803;28;20457;-81
2022/09/17 07:53:25;;;;;;;0.40;0.40;;;13.90;99.90;;;;;;4905097;28;20491;-82
2022/09/17 07:55:59;;;;;;;0.40;0.40;;;13.90;99.90;;;;;;4909192;28;20267;-81
2022/09/17 07:58:34;;;;;;;0.50;0.50;;;14.00;99.90;;;;;;4922800;28;20062;-83
2022/09/17 08:01:05;;;;;;;0.50;0.50;;;14.10;99.90;;;;;;4915613;28;20057;-78
2022/09/17 08:03:32;;;;;;;0.40;0.40;;;14.30;99.90;;;;;;4911653;28;20935;-80
2022/09/17 08:06:19;;;;;;;0.40;0.40;;;14.60;99.90;;;;;;4909580;28;20137;-80
2022/09/17 08:08:45;;;;;;;0.40;0.40;;;14.60;99.90;;;;;;4902940;28;20096;-82
2022/09/17 08:11:13;;;;;;;0.40;0.40;;;14.40;99.90;;;;;;4923523;28;20107;-81
2022/09/17 08:13:40;;;;;;;0.40;0.40;;;14.30;99.90;;;;;;4918164;28;20836;-82
2022/09/17 08:16:14;;;;;;;0.40;0.40;;;14.60;99.90;;;;;;4902726;28;20049;-79
2022/09/17 08:18:41;;;;;;;0.47;0.47;;;14.70;99.90;;;;;;4929685;28;21312;-80
2022/09/17 08:21:10;;;;;;;0.40;0.40;;;14.70;99.90;;;;;;4895171;28;20898;-79
2022/09/17 08:23:37;;;;;;;0.50;0.50;;;14.90;99.90;;;;;;4923458;28;20404;-79
2022/09/17 08:26:05;;;;;;;0.40;0.40;;;14.80;99.90;;;;;;4917118;28;20228;-81
2022/09/17 08:28:31;;;;;;;0.40;0.40;;;14.80;99.90;;;;;;4940308;28;20534;-79
2022/09/17 08:31:03;;;;;;;0.40;0.40;;;15.00;99.90;;;;;;4908870;28;20076;-78
2022/09/17 08:33:34;;;;;;;0.40;0.40;;;15.30;99.90;;;;;;4943412;28;20377;-80
2022/09/17 08:36:00;;;;;;;0.50;0.50;;;15.10;99.90;;;;;;4905067;28;20542;-82
2022/09/17 08:38:32;;;;;;;0.40;0.40;;;15.30;99.90;;;;;;4942612;28;20521;-76
2022/09/17 08:41:10;;;;;;;0.40;0.40;;;14.60;99.90;;;;;;4922855;28;20627;-83
2022/09/17 08:43:57;;;;;;;0.40;0.40;;;14.20;99.90;;;;;;4941876;28;20135;-83
2022/09/17 08:46:24;;;;;;;0.40;0.40;;;13.80;99.90;;;;;;4907419;28;20507;-81
2022/09/17 08:49:14;;;;;;;0.50;0.50;;;13.70;99.90;;;;;;4932600;28;20053;-82
2022/09/17 08:51:55;;;;;;;0.50;0.50;;;13.80;99.90;;;;;;4898202;28;20054;-80
2022/09/17 08:54:38;;;;;;;0.50;0.50;;;13.70;99.90;;;;;;4933865;28;20061;-82
2022/09/17 08:57:27;;;;;;;0.50;0.50;;;13.60;99.90;;;;;;4897883;28;20125;-83
2022/09/17 09:00:01;;;;;;;0.50;0.50;;;14.30;99.90;;;;;;4923228;28;20210;-86
2022/09/17 09:02:43;;;;;;;0.50;0.50;;;14.30;99.90;;;;;;4903022;28;20056;-80
2022/09/17 09:05:15;;;;;;;0.50;0.50;;;14.10;99.90;;;;;;4900177;28;20941;-81
2022/09/17 09:07:52;;;;;;;0.50;0.50;;;13.90;99.90;;;;;;4902090;28;21703;-80
2022/09/17 09:10:24;;;;;;;0.50;0.50;;;13.60;99.90;;;;;;4917413;28;20517;-80
2022/09/17 09:12:56;;;;;;;0.50;0.50;;;13.70;99.90;;;;;;4912730;28;20435;-80
2022/09/17 09:15:34;;;;;;;0.50;0.50;;;14.20;99.90;;;;;;4911642;28;20045;-78
2022/09/17 09:18:40;;;;;;;0.50;0.50;;;14.30;99.90;;;;;;4895745;28;20061;-79
2022/09/17 09:21:20;;;;;;;0.50;0.50;;;14.30;99.90;;;;;;4838383;28;20062;-77
2022/09/17 09:24:07;;;;;;;0.50;0.50;;;14.20;99.90;;;;;;4846099;28;20070;-81
2022/09/17 09:26:46;;;;;;;0.50;0.50;;;14.30;99.90;;;;;;4902910;28;20061;-79
2022/09/17 09:29:33;;;;;;;0.50;0.50;;;14.40;99.90;;;;;;4902220;28;20056;-79
2022/09/17 09:32:08;;;;;;;0.40;0.40;;;14.70;99.90;;;;;;4899565;28;20045;-79
2022/09/17 09:34:36;;;;;;;0.43;0.43;;;14.90;99.90;;;;;;4918670;28;20593;-78
2022/09/17 09:37:33;;;;;;;0.40;0.40;;;15.50;99.90;;;;;;4916291;28;20054;-80
2022/09/17 09:40:22;;;;;;;0.40;0.40;;;15.80;99.90;;;;;;4881704;28;20179;-85
2022/09/17 09:42:49;;;;;;;0.40;0.40;;;16.00;99.90;;;;;;4905716;28;20038;-81
2022/09/17 09:45:22;;;;;;;0.43;0.43;;;15.80;99.90;;;;;;4917004;28;20053;-79
2022/09/17 09:48:02;;;;;;;0.40;0.40;;;16.00;99.90;;;;;;4905037;28;20077;-82
2022/09/17 09:50:54;;;;;;;0.40;0.40;;;16.10;99.90;;;;;;4904954;28;20112;-84
2022/09/17 09:53:54;;;;;;;0.40;0.40;;;16.50;99.90;;;;;;4941623;28;20041;-80
2022/09/17 09:56:55;;;;;;;0.40;0.40;;;16.00;99.90;;;;;;4906951;28;20061;-82
2022/09/17 09:59:21;;;;;;;0.40;0.40;;;15.30;99.90;;;;;;4909504;28;20511;-81
2022/09/17 10:01:47;;;;;;;0.40;0.40;;;14.60;99.90;;;;;;4914242;28;20083;-81
2022/09/17 10:04:24;;;;;;;0.40;0.40;;;14.30;99.90;;;;;;4897377;28;20050;-81
2022/09/17 10:07:06;;;;;;;0.40;0.40;;;14.70;99.90;;;;;;4903248;28;20687;-80
2022/09/17 10:09:35;;;;;;;0.40;0.40;;;15.10;99.90;;;;;;4924139;28;20050;-83
2022/09/17 10:12:07;;;;;;;0.40;0.40;;;15.30;99.90;;;;;;4905803;28;20073;-82
2022/09/17 10:14:41;;;;;;;0.40;0.40;;;15.90;99.90;;;;;;4905173;28;20056;-80
2022/09/17 10:17:28;;;;;;;0.50;0.50;;;15.50;99.90;;;;;;4901125;28;20417;-84
2022/09/17 10:20:10;;;;;;;0.40;0.40;;;15.10;99.90;;;;;;4896975;28;20128;-80
2022/09/17 10:22:42;;;;;;;0.40;0.40;;;15.00;99.90;;;;;;4898063;28;20473;-81
2022/09/17 10:25:42;;;;;;;0.40;0.40;;;15.00;99.90;;;;;;4900797;28;20432;-81
2022/09/17 10:28:36;;;;;;;0.40;0.40;;;15.40;99.90;;;;;;4903145;28;20058;-80
2022/09/17 10:31:09;;;;;;;0.40;0.40;;;15.70;99.90;;;;;;4930413;28;21028;-82
2022/09/17 10:33:50;;;;;;;0.40;0.40;;;15.80;99.90;;;;;;4924673;28;20041;-78
2022/09/17 10:36:16;;;;;;;0.40;0.40;;;15.70;99.90;;;;;;4946328;28;20504;-79
2022/09/17 10:38:45;;;;;;;0.40;0.40;;;15.20;99.90;;;;;;4933366;28;20053;-77
2022/09/17 10:41:12;;;;;;;0.40;0.40;;;14.80;99.90;;;;;;4874953;28;20084;-83
2022/09/17 10:43:39;;;;;;;0.47;0.47;;;14.60;99.90;;;;;;4907869;28;20567;-82
2022/09/17 10:46:09;;;;;;;0.40;0.40;;;15.10;99.90;;;;;;4940080;28;20089;-82
2022/09/17 10:48:43;;;;;;;0.45;0.45;;;15.40;99.90;;;;;;4907098;28;20065;-78
2022/09/17 10:51:10;;;;;;;0.50;0.50;;;15.60;99.90;;;;;;4929095;28;20082;-77
2022/09/17 10:54:04;;;;;;;0.45;0.45;;;15.90;99.90;;;;;;4908691;28;20661;-79
2022/09/17 10:56:35;;;;;;;0.40;0.40;;;16.20;99.90;;;;;;4907464;28;20931;-78
2022/09/17 10:59:22;;;;;;;0.40;0.40;;;16.40;99.90;;;;;;4902596;28;20085;-79
2022/09/17 11:02:06;;;;;;;0.40;0.40;;;16.80;99.90;;;;;;4921072;28;20085;-80
2022/09/17 11:04:50;;;;;;;0.40;0.40;;;16.40;99.90;;;;;;4904295;28;20085;-83
2022/09/17 11:07:35;;;;;;;;;;;16.20;99.90;;;;;;4925319;28;20060;-77
2022/09/17 11:10:28;;;;;;;0.50;0.50;;;16.10;99.90;;;;;;4925214;28;21124;-80
2022/09/17 11:13:00;;;;;;;0.40;0.40;;;16.50;99.90;;;;;;4939940;28;20894;-80
2022/09/17 11:15:50;;;;;;;0.40;0.40;;;17.10;99.90;;;;;;4915601;28;20049;-79
2022/09/17 11:18:38;;;;;;;0.40;0.40;;;17.20;99.90;;;;;;4901616;28;20811;-82
2022/09/17 11:21:23;;;;;;;0.40;0.40;;;17.20;99.90;;;;;;4895831;28;20062;-76
2022/09/17 11:24:26;;;;;;;0.40;0.40;;;17.30;99.90;;;;;;4918060;28;20488;-80
2022/09/17 11:27:24;;;;;;;0.40;0.40;;;17.70;99.90;;;;;;4910958;28;20180;-78
2022/09/17 11:30:08;;;;;;;0.40;0.40;;;17.70;99.90;;;;;;4894482;28;20045;-80
2022/09/17 11:33:27;;;;;;;0.40;0.40;;;18.10;99.90;;;;;;4923157;28;20491;-78
2022/09/17 11:36:00;;;;;;;0.40;0.40;;;18.50;99.90;;;;;;4875239;28;20955;-78
2022/09/17 11:38:29;;;;;;;0.40;0.40;;;18.60;99.90;;;;;;4936829;28;20671;-79
2022/09/17 11:41:07;;;;;;;0.40;0.40;;;18.60;99.90;;;;;;4905802;28;20127;-80
2022/09/17 11:43:36;;;;;;;0.40;0.40;;;18.50;99.90;;;;;;4914304;28;20748;-81
2022/09/17 11:46:13;;;;;;;0.40;0.40;;;17.40;99.90;;;;;;4909124;28;20065;-77
2022/09/17 11:48:51;;;;;;;0.40;0.40;;;16.70;99.90;;;;;;4924003;28;20051;-79
2022/09/17 11:51:27;;;;;;;0.40;0.40;;;15.00;99.90;;;;;;4936139;28;20050;-80
2022/09/17 11:54:25;;;;;;;0.40;0.40;;;14.70;99.90;;;;;;4905691;28;20140;-81
2022/09/17 11:57:17;;;;;;;0.40;0.40;;;14.40;99.90;;;;;;4942343;28;20080;-82
2022/09/17 11:59:45;;;;;;;0.40;0.40;;;13.80;99.90;;;;;;4939186;28;20088;-80
2022/09/17 12:02:20;;;;;;;0.40;0.40;;;13.70;99.90;;;;;;4908555;28;20045;-81
2022/09/17 12:04:52;;;;;;;0.40;0.40;;;13.40;99.90;;;;;;4926577;28;20140;-80
2022/09/17 12:07:49;;;;;;;0.40;0.40;;;13.20;99.90;;;;;;4908781;28;20049;-81
2022/09/17 12:10:56;;;;;;;0.40;0.40;;;13.40;99.90;;;;;;4927560;28;20045;-79
2022/09/17 12:13:40;;;;;;;0.40;0.40;;;13.40;99.90;;;;;;4922600;28;20061;-81
2022/09/17 12:16:16;;;;;;;0.40;0.40;;;13.50;99.90;;;;;;4927190;28;20157;-80
2022/09/17 12:19:04;;;;;;;0.40;0.40;;;13.50;99.90;;;;;;4909534;28;20181;-81
2022/09/17 12:21:48;;;;;;;0.40;0.40;;;13.70;99.90;;;;;;4940721;28;20097;-80
2022/09/17 12:24:24;;;;;;;0.40;0.40;;;14.00;99.90;;;;;;4942847;28;20477;-80
2022/09/17 12:26:59;;;;;;;0.40;0.40;;;14.40;99.90;;;;;;4907139;28;20058;-83
2022/09/17 12:29:37;;;;;;;0.40;0.40;;;14.20;99.90;;;;;;4923184;28;20042;-82
2022/09/17 12:32:30;;;;;;;0.50;0.50;;;14.20;99.90;;;;;;4905001;28;20380;-83
2022/09/17 12:35:26;;;;;;;0.40;0.40;;;14.00;99.90;;;;;;4921230;28;20069;-82
2022/09/17 12:38:16;;;;;;;0.40;0.40;;;14.30;99.90;;;;;;4907629;28;20054;-78
2022/09/17 12:40:59;;;;;;;0.50;0.50;;;14.30;99.90;;;;;;4897553;28;20049;-80
2022/09/17 12:43:43;;;;;;;0.50;0.50;;;14.30;99.90;;;;;;4907702;28;20557;-82
2022/09/17 12:46:40;;;;;;;0.50;0.50;;;14.30;99.90;;;;;;4938711;28;20802;-79
2022/09/17 12:49:24;;;;;;;0.40;0.40;;;14.10;99.90;;;;;;4891869;28;20140;-80
2022/09/17 12:52:14;;;;;;;0.50;0.50;;;14.30;99.90;;;;;;4905456;28;20112;-82
2022/09/17 12:54:52;;;;;;;0.40;0.40;;;14.50;99.90;;;;;;4924916;28;20050;-80
2022/09/17 12:57:44;;;;;;;0.40;0.40;;;14.60;99.90;;;;;;4905898;28;20077;-84
2022/09/17 13:00:13;;;;;;;0.50;0.50;;;14.80;99.90;;;;;;4891592;28;20061;-79
2022/09/17 13:02:42;;;;;;;0.40;0.40;;;14.80;99.90;;;;;;4904139;28;20041;-80
2022/09/17 13:05:37;;;;;;;0.50;0.50;;;15.50;99.90;;;;;;4940171;28;20061;-79
2022/09/17 13:08:06;;;;;;;0.50;0.50;;;15.80;99.90;;;;;;4935677;28;20046;-78
2022/09/17 13:11:00;;;;;;;0.40;0.40;;;16.20;99.90;;;;;;4924684;28;20655;-80
2022/09/17 13:13:53;;;;;;;0.40;0.40;;;16.10;99.90;;;;;;4909762;28;20490;-79
2022/09/17 13:16:25;;;;;;;0.40;0.40;;;16.40;99.90;;;;;;4900466;28;20061;-81
2022/09/17 13:19:04;;;;;;;0.40;0.40;;;16.30;99.90;;;;;;4923401;28;20148;-79
2022/09/17 13:21:51;;;;;;;0.40;0.40;;;16.50;99.90;;;;;;4905418;28;20137;-80